createdAt,value
2018-09-03T00:01:28.696Z,102305.34
2018-09-03T00:03:56.330Z,102302.24
2018-09-03T00:06:24.060Z,102307.59
2018-09-03T00:08:51.709Z,102301.01
2018-09-03T00:11:19.722Z,102298.78
2018-09-03T00:13:48.016Z,102293.92
2018-09-03T00:16:15.649Z,102292.61
2018-09-03T00:18:43.342Z,102291.28
2018-09-03T00:21:11.029Z,102290.87
2018-09-03T00:23:39.613Z,102285.58
2018-09-03T00:26:07.397Z,102281.62
2018-09-03T00:28:35.037Z,102282.94
2018-09-03T00:31:08.512Z,102280.80
2018-09-03T00:33:41.719Z,102276.38
2018-09-03T00:36:15.327Z,102271.09
2018-09-03T00:38:48.972Z,102266.31
2018-09-03T00:41:22.208Z,102268.98
2018-09-03T00:43:55.479Z,102269.36
2018-09-03T00:46:29.172Z,102268.52
2018-09-03T00:48:57.246Z,102264.98
2018-09-03T00:51:24.887Z,102266.31
2018-09-03T00:53:52.926Z,102265.89
2018-09-03T00:56:20.672Z,102268.06
2018-09-03T00:58:48.335Z,102261.48
2018-09-03T01:01:16.560Z,102260.64
2018-09-03T01:03:44.301Z,102264.59
2018-09-03T01:06:12.391Z,102261.05
2018-09-03T01:08:40.443Z,102258.42
2018-09-03T01:11:08.360Z,102251.80
2018-09-03T01:13:36.101Z,102250.45
2018-09-03T01:16:04.337Z,102243.84
2018-09-03T01:18:37.122Z,102241.60
2018-09-03T01:21:05.095Z,102239.45
2018-09-03T01:23:33.016Z,102244.72
2018-09-03T01:26:00.741Z,102242.52
2018-09-03T01:28:28.482Z,102240.28
2018-09-03T01:30:56.180Z,102238.55
2018-09-03T01:33:23.898Z,102233.27
2018-09-03T01:35:51.634Z,102237.23
2018-09-03T01:38:19.408Z,102238.55
2018-09-03T01:40:47.052Z,102241.19
2018-09-03T01:43:14.817Z,102234.17
2018-09-03T01:45:42.678Z,102234.17
2018-09-03T01:48:10.456Z,102226.66
2018-09-03T01:50:38.469Z,102228.50
2018-09-03T01:55:33.194Z,102230.31
2018-09-03T01:58:01.241Z,102220.24
2018-09-03T02:00:28.909Z,102224.23
2018-09-03T02:02:56.616Z,102216.74
2018-09-03T02:05:24.273Z,102212.36
2018-09-03T02:07:52.522Z,102212.84
2018-09-03T02:10:20.232Z,102216.36
2018-09-03T02:12:47.945Z,102206.28
2018-09-03T02:15:16.196Z,102208.95
2018-09-03T02:17:43.924Z,102204.58
2018-09-03T02:20:11.647Z,102199.31
2018-09-03T02:22:39.712Z,102196.20
2018-09-03T02:25:07.456Z,102199.78
2018-09-03T02:27:35.476Z,102198.93
2018-09-03T02:30:03.141Z,102187.06
2018-09-03T02:32:31.229Z,102192.79
2018-09-03T02:34:59.263Z,102190.62
2018-09-03T02:37:27.289Z,102192.37
2018-09-03T02:39:54.979Z,102193.73
2018-09-03T02:42:22.656Z,102194.20
2018-09-03T02:44:50.405Z,102192.87
2018-09-03T02:47:18.104Z,102191.55
2018-09-03T02:49:45.860Z,102192.87
2018-09-03T02:52:13.863Z,102194.62
2018-09-03T02:54:41.750Z,102191.58
2018-09-03T02:57:09.451Z,102185.87
2018-09-03T02:59:37.220Z,102185.00
2018-09-03T03:02:05.025Z,102175.31
2018-09-03T03:04:32.725Z,102179.73
2018-09-03T03:07:00.363Z,102181.97
2018-09-03T03:09:28.456Z,102178.44
2018-09-03T03:11:56.177Z,102179.77
2018-09-03T03:14:23.845Z,102176.27
2018-09-03T03:16:51.640Z,102180.64
2018-09-03T03:19:19.341Z,102176.19
2018-09-03T03:21:47.045Z,102174.05
2018-09-03T03:24:14.751Z,102179.73
2018-09-03T03:26:42.465Z,102178.91
2018-09-03T03:29:10.263Z,102180.23
2018-09-03T03:31:38.308Z,102177.59
2018-09-03T03:34:06.588Z,102174.95
2018-09-03T03:36:34.275Z,102166.61
2018-09-03T03:39:02.085Z,102168.40
2018-09-03T03:41:29.769Z,102170.58
2018-09-03T03:43:57.506Z,102170.52
2018-09-03T03:46:25.459Z,102174.92
2018-09-03T03:48:53.148Z,102173.13
2018-09-03T03:51:20.867Z,102170.91
2018-09-03T03:53:48.554Z,102167.41
2018-09-03T03:56:16.275Z,102173.13
2018-09-03T03:58:44.145Z,102162.56
2018-09-03T04:04:20.292Z,102161.77
2018-09-03T04:06:47.928Z,102150.81
2018-09-03T04:09:16.132Z,102157.42
2018-09-03T04:14:34.216Z,102151.75
2018-09-03T04:17:02.101Z,102147.79
2018-09-03T04:19:29.762Z,102141.63
2018-09-03T04:21:57.674Z,102149.14
2018-09-03T04:24:41.576Z,102142.53
2018-09-03T04:27:09.195Z,102143.85
2018-09-03T04:29:37.097Z,102135.93
2018-09-03T04:32:05.151Z,102137.66
2018-09-03T04:34:32.794Z,102134.58
2018-09-03T04:37:00.509Z,102130.64
2018-09-03T04:39:28.136Z,102128.00
2018-09-03T04:42:09.089Z,102137.25
2018-09-03T04:44:36.701Z,102134.20
2018-09-03T04:58:27.364Z,102129.91
2018-09-03T05:00:55.059Z,102134.77
2018-09-03T05:03:22.733Z,102131.25
2018-09-03T05:05:51.369Z,102139.17
2018-09-03T05:08:19.405Z,102142.72
2018-09-03T05:10:47.348Z,102146.69
2018-09-03T05:16:05.937Z,102126.02
2018-09-03T05:18:35.195Z,102122.12
2018-09-03T05:21:03.190Z,102125.61
2018-09-03T05:23:30.931Z,102122.14
2018-09-03T05:25:58.716Z,102119.50
2018-09-03T05:28:26.408Z,102124.78
2018-09-03T05:30:54.518Z,102126.95
2018-09-03T05:33:22.296Z,102123.47
2018-09-03T05:35:50.072Z,102117.30
2018-09-03T05:38:18.064Z,102123.02
2018-09-03T05:40:45.755Z,102121.23
2018-09-03T05:43:13.457Z,102118.09
2018-09-03T05:45:41.177Z,102107.91
2018-09-03T05:48:09.157Z,102112.70
2018-09-03T05:50:36.895Z,102115.76
2018-09-03T05:53:05.051Z,102096.97
2018-09-03T05:55:33.124Z,102106.46
2018-09-03T05:58:01.384Z,102099.38
2018-09-03T06:00:29.428Z,102105.14
2018-09-03T06:02:57.166Z,102114.73
2018-09-03T06:05:24.988Z,102126.98
2018-09-03T06:07:52.736Z,102140.97
2018-09-03T06:10:20.438Z,102134.77
2018-09-03T06:12:48.166Z,102130.42
2018-09-03T06:15:16.015Z,102138.32
2018-09-03T06:17:43.784Z,102134.36
2018-09-03T06:20:23.256Z,102130.78
2018-09-03T06:22:51.140Z,102135.16
2018-09-03T06:25:18.862Z,102133.84
2018-09-03T06:27:46.751Z,102125.88
2018-09-03T06:30:15.071Z,102120.89
2018-09-03T06:32:42.862Z,102118.72
2018-09-03T06:35:10.871Z,102121.39
2018-09-03T06:37:38.646Z,102120.51
2018-09-03T06:40:06.424Z,102135.13
2018-09-03T06:42:35.020Z,102140.86
2018-09-03T06:45:02.821Z,102133.84
2018-09-03T06:47:30.608Z,102141.73
2018-09-03T06:49:58.410Z,102143.50
2018-09-03T06:52:26.428Z,102144.81
2018-09-03T06:54:54.149Z,102141.27
2018-09-03T06:57:21.892Z,102146.55
2018-09-03T06:59:49.660Z,102140.03
2018-09-03T07:02:17.580Z,102140.86
2018-09-03T07:04:45.325Z,102132.05
2018-09-03T07:07:13.019Z,102129.38
2018-09-03T07:09:40.781Z,102127.61
2018-09-03T07:12:08.470Z,102120.98
2018-09-03T07:14:36.136Z,102120.48
2018-09-03T07:17:04.717Z,102116.05
2018-09-03T07:19:32.428Z,102112.05
2018-09-03T07:22:00.532Z,102113.31
2018-09-03T07:24:28.248Z,102121.24
2018-09-03T07:26:55.957Z,102112.08
2018-09-03T07:29:24.300Z,102106.36
2018-09-03T07:31:52.032Z,102103.80
2018-09-03T07:34:20.629Z,102096.34
2018-09-03T07:36:48.661Z,102095.49
2018-09-03T07:39:16.958Z,102091.03
2018-09-03T07:41:44.758Z,102087.54
2018-09-03T07:44:12.612Z,102094.55
2018-09-03T07:46:40.364Z,102082.25
2018-09-03T07:49:08.185Z,102084.39
2018-09-03T07:51:35.956Z,102075.11
2018-09-03T07:54:03.628Z,102083.86
2018-09-03T07:56:31.312Z,102076.79
2018-09-03T07:58:59.402Z,102079.78
2018-09-03T08:01:27.035Z,102073.99
2018-09-03T08:03:55.084Z,102071.76
2018-09-03T08:06:23.097Z,102076.07
2018-09-03T08:08:50.789Z,102070.28
2018-09-03T08:11:18.935Z,102073.71
2018-09-03T08:13:46.668Z,102071.48
2018-09-03T08:16:14.467Z,102068.36
2018-09-03T08:18:42.321Z,102075.80
2018-09-03T08:21:10.043Z,102074.03
2018-09-03T08:23:37.822Z,102077.59
2018-09-03T08:26:05.753Z,102073.08
2018-09-03T08:28:33.584Z,102075.70
2018-09-03T08:31:01.631Z,102085.33
2018-09-03T08:33:29.318Z,102089.27
2018-09-03T08:35:57.589Z,102099.84
2018-09-03T08:38:25.425Z,102092.78
2018-09-03T08:40:53.239Z,102091.05
2018-09-03T08:43:21.257Z,102096.38
2018-09-03T08:45:48.992Z,102098.14
2018-09-03T08:48:16.756Z,102100.34
2018-09-03T08:50:44.670Z,102098.01
2018-09-03T08:53:12.365Z,102084.22
2018-09-03T08:55:40.168Z,102075.78
2018-09-03T08:58:07.935Z,102072.26
2018-09-03T09:00:35.613Z,102076.26
2018-09-03T09:03:03.289Z,102077.14
2018-09-03T09:05:31.371Z,102078.36
2018-09-03T09:07:59.077Z,102066.80
2018-09-03T09:10:26.759Z,102073.38
2018-09-03T09:15:44.833Z,102062.30
2018-09-03T09:18:12.643Z,102053.45
2018-09-03T09:20:40.390Z,102054.67
2018-09-03T09:23:08.212Z,102061.25
2018-09-03T09:25:36.040Z,102053.69
2018-09-03T09:28:03.982Z,102044.83
2018-09-03T09:30:31.833Z,102047.00
2018-09-03T09:32:59.587Z,102044.22
2018-09-03T09:35:27.654Z,102032.65
2018-09-03T09:40:49.777Z,102032.10
2018-09-03T09:43:17.722Z,102031.14
2018-09-03T09:45:45.395Z,102031.59
2018-09-03T09:48:13.089Z,102029.23
2018-09-03T09:50:40.813Z,102022.95
2018-09-03T09:53:08.484Z,102025.05
2018-09-03T09:55:36.332Z,102019.35
2018-09-03T09:58:04.041Z,102018.44
2018-09-03T10:00:37.472Z,102015.31
2018-09-03T10:03:05.156Z,102009.13
2018-09-03T10:05:32.899Z,102002.44
2018-09-03T10:08:00.869Z,102012.08
2018-09-03T10:10:29.163Z,102004.02
2018-09-03T10:12:56.933Z,102013.73
2018-09-03T10:15:24.761Z,102006.63
2018-09-03T10:17:52.490Z,101998.25
2018-09-03T10:20:20.563Z,101999.65
2018-09-03T10:22:48.262Z,101995.13
2018-09-03T10:25:15.949Z,101994.09
2018-09-03T10:27:43.733Z,101997.94
2018-09-03T10:30:11.426Z,101997.39
2018-09-03T10:32:40.314Z,101991.65
2018-09-03T10:35:08.080Z,101987.72
2018-09-03T10:37:35.912Z,101990.81
2018-09-03T10:40:04.053Z,101998.31
2018-09-03T10:42:32.003Z,101994.30
2018-09-03T10:45:00.117Z,101989.85
2018-09-03T10:47:27.829Z,101987.24
2018-09-03T10:49:55.629Z,101978.94
2018-09-03T10:52:23.371Z,101970.99
2018-09-03T10:54:51.058Z,101969.63
2018-09-03T10:57:18.846Z,101965.21
2018-09-03T10:59:47.067Z,101969.99
2018-09-03T11:02:14.777Z,101968.19
2018-09-03T11:04:43.757Z,101966.75
2018-09-03T11:07:12.450Z,101962.73
2018-09-03T11:09:41.325Z,101960.92
2018-09-03T11:12:09.134Z,101953.38
2018-09-03T11:14:36.952Z,101952.42
2018-09-03T11:17:04.662Z,101953.18
2018-09-03T11:19:34.956Z,101957.39
2018-09-03T11:22:02.726Z,101955.98
2018-09-03T11:24:30.460Z,101944.46
2018-09-03T11:26:58.179Z,101948.34
2018-09-03T11:29:26.077Z,101946.86
2018-09-03T11:31:53.971Z,101950.19
2018-09-03T11:34:21.666Z,101956.68
2018-09-03T11:36:49.590Z,101945.87
2018-09-03T11:39:17.631Z,101939.97
2018-09-03T11:41:45.577Z,101933.56
2018-09-03T11:44:13.351Z,101935.59
2018-09-03T11:46:41.413Z,101931.58
2018-09-03T11:49:09.116Z,101923.53
2018-09-03T11:51:36.950Z,101925.64
2018-09-03T11:54:04.679Z,101926.00
2018-09-03T11:56:32.366Z,101929.41
2018-09-03T11:59:00.571Z,101921.57
2018-09-03T12:01:28.282Z,101928.59
2018-09-03T12:03:55.990Z,101919.86
2018-09-03T12:06:23.709Z,101926.14
2018-09-03T12:08:51.329Z,101926.44
2018-09-03T12:11:19.226Z,101917.83
2018-09-03T12:13:47.202Z,101914.98
2018-09-03T12:16:18.739Z,101917.50
2018-09-03T12:21:37.098Z,101919.57
2018-09-03T12:24:05.446Z,101907.55
2018-09-03T12:26:34.160Z,101908.29
2018-09-03T12:29:03.035Z,101902.80
2018-09-03T12:31:34.872Z,101905.27
2018-09-03T12:34:03.518Z,101898.50
2018-09-03T12:36:41.951Z,101895.30
2018-09-03T12:39:10.623Z,101895.11
2018-09-03T12:41:39.184Z,101895.81
2018-09-03T12:44:13.498Z,101885.39
2018-09-03T12:46:41.249Z,101879.53
2018-09-03T12:49:10.007Z,101878.45
2018-09-03T12:51:39.273Z,101873.44
2018-09-03T12:54:07.881Z,101874.66
2018-09-03T12:56:36.213Z,101870.48
2018-09-03T12:59:09.806Z,101876.53
2018-09-03T13:01:39.586Z,101873.77
2018-09-03T13:04:08.959Z,101872.34
2018-09-03T13:06:37.509Z,101867.42
2018-09-03T13:11:55.283Z,101856.64
2018-09-03T13:14:24.203Z,101860.91
2018-09-03T13:16:52.767Z,101850.14
2018-09-03T13:19:21.582Z,101855.74
2018-09-03T13:21:50.300Z,101858.69
2018-09-03T13:24:21.085Z,101852.78
2018-09-03T13:26:50.978Z,101851.34
2018-09-03T13:29:19.496Z,101849.51
2018-09-03T13:31:48.569Z,101851.08
2018-09-03T13:34:20.167Z,101852.33
2018-09-03T13:36:48.815Z,101852.11
2018-09-03T13:39:19.088Z,101854.34
2018-09-03T13:41:48.262Z,101833.81
2018-09-03T13:44:18.016Z,101845.75
2018-09-03T13:46:47.544Z,101846.53
2018-09-03T13:49:19.686Z,101837.91
2018-09-03T13:51:49.395Z,101835.02
2018-09-03T13:54:18.097Z,101839.67
2018-09-03T13:56:46.884Z,101837.74
2018-09-03T13:59:15.553Z,101830.98
2018-09-03T14:01:43.936Z,101834.25
2018-09-03T14:04:12.450Z,101828.27
2018-09-03T14:06:41.239Z,101827.60
2018-09-03T14:09:09.650Z,101824.77
2018-09-03T14:11:38.731Z,101824.07
2018-09-03T14:14:08.680Z,101821.68
2018-09-03T14:16:37.296Z,101824.45
2018-09-03T14:19:06.098Z,101820.17
2018-09-03T14:21:34.986Z,101819.96
2018-09-03T14:24:03.561Z,101807.37
2018-09-03T14:26:37.198Z,101820.86
2018-09-03T14:29:05.956Z,101819.23
2018-09-03T14:31:35.533Z,101817.58
2018-09-03T14:34:06.375Z,101817.00
2018-09-03T14:36:36.016Z,101811.14
2018-09-03T14:39:05.927Z,101813.73
2018-09-03T14:41:42.065Z,101814.88
2018-09-03T14:44:12.788Z,101816.66
2018-09-03T14:49:08.675Z,101807.39
2018-09-03T14:51:37.183Z,101806.61
2018-09-03T14:54:09.618Z,101803.61
2018-09-03T14:56:39.533Z,101803.75
2018-09-03T14:59:14.507Z,101803.20
2018-09-03T15:01:44.548Z,101808.39
2018-09-03T15:04:13.046Z,101807.92
2018-09-03T15:06:43.629Z,101804.08
2018-09-03T15:09:14.388Z,101806.87
2018-09-03T15:11:42.925Z,101805.16
2018-09-03T15:14:11.407Z,101811.98
2018-09-03T15:16:40.787Z,101799.02
2018-09-03T15:19:09.482Z,101797.60
2018-09-03T15:21:38.238Z,101796.50
2018-09-03T15:24:07.228Z,101796.67
2018-09-03T15:26:35.788Z,101789.87
2018-09-03T15:29:07.168Z,101792.22
2018-09-03T15:31:37.491Z,101796.98
2018-09-03T15:34:06.333Z,101792.47
2018-09-03T15:36:37.883Z,101792.97
2018-09-03T15:39:10.239Z,101790.20
2018-09-03T15:41:38.652Z,101790.86
2018-09-03T15:44:09.562Z,101793.33
2018-09-03T15:46:39.595Z,101801.03
2018-09-03T15:49:08.084Z,101795.14
2018-09-03T15:51:36.732Z,101796.05
2018-09-03T15:54:05.271Z,101794.30
2018-09-03T15:56:38.636Z,101787.22
2018-09-03T15:59:07.237Z,101792.05
2018-09-03T16:01:38.603Z,101784.24
2018-09-03T16:04:07.124Z,101777.57
2018-09-03T16:06:35.838Z,101785.86
2018-09-03T16:09:08.503Z,101789.17
2018-09-03T16:11:38.676Z,101785.81
2018-09-03T16:14:09.185Z,101783.21
2018-09-03T16:16:40.824Z,101780.23
2018-09-03T16:19:10.454Z,101774.19
2018-09-03T16:21:39.922Z,101771.14
2018-09-03T16:24:09.251Z,101773.91
2018-09-03T16:26:38.046Z,101771.86
2018-09-03T16:29:07.385Z,101767.74
2018-09-03T16:31:36.425Z,101764.41
2018-09-03T16:34:10.141Z,101769.61
2018-09-03T16:36:37.953Z,101767.38
2018-09-03T16:39:09.661Z,101770.89
2018-09-03T16:41:42.430Z,101767.30
2018-09-03T16:44:14.466Z,101772.13
2018-09-03T16:46:43.816Z,101772.55
2018-09-03T16:49:11.653Z,101774.39
2018-09-03T16:51:39.731Z,101774.88
2018-09-03T16:54:07.472Z,101770.98
2018-09-03T16:56:35.157Z,101776.42
2018-09-03T16:59:02.884Z,101779.63
2018-09-03T17:01:30.802Z,101773.92
2018-09-03T17:04:01.026Z,101772.59
2018-09-03T17:06:28.739Z,101773.38
2018-09-03T17:08:56.419Z,101771.92
2018-09-03T17:11:24.154Z,101766.93
2018-09-03T17:13:51.860Z,101773.39
2018-09-03T17:16:19.546Z,101768.56
2018-09-03T17:18:47.401Z,101768.50
2018-09-03T17:21:15.193Z,101763.30
2018-09-03T17:23:42.893Z,101770.16
2018-09-03T17:26:10.692Z,101773.66
2018-09-03T17:28:39.320Z,101777.09
2018-09-03T17:31:07.036Z,101777.41
2018-09-03T17:33:34.801Z,101775.83
2018-09-03T17:36:02.856Z,101782.27
2018-09-03T17:38:30.623Z,101784.16
2018-09-03T17:40:58.286Z,101791.89
2018-09-03T17:43:26.363Z,101788.48
2018-09-03T17:45:54.157Z,101789.02
2018-09-03T17:48:22.008Z,101796.17
2018-09-03T17:50:49.755Z,101791.01
2018-09-03T17:53:17.470Z,101793.78
2018-09-03T17:55:45.726Z,101796.55
2018-09-03T17:58:13.413Z,101799.83
2018-09-03T18:00:41.182Z,101798.16
2018-09-03T18:03:09.252Z,101803.64
2018-09-03T18:05:37.864Z,101803.80
2018-09-03T18:08:05.658Z,101808.28
2018-09-03T18:10:33.726Z,101811.48
2018-09-03T18:13:01.969Z,101817.34
2018-09-03T18:15:29.933Z,101820.09
2018-09-03T18:17:57.629Z,101825.41
2018-09-03T18:20:25.672Z,101829.39
2018-09-03T18:22:53.606Z,101826.84
2018-09-03T18:25:21.869Z,101828.23
2018-09-03T18:27:49.539Z,101832.27
2018-09-03T18:30:17.650Z,101832.85
2018-09-03T18:32:45.825Z,101832.03
2018-09-03T18:35:13.537Z,101829.91
2018-09-03T18:37:41.538Z,101833.55
2018-09-03T18:40:09.278Z,101832.73
2018-09-03T18:42:37.074Z,101845.61
2018-09-03T18:45:05.427Z,101843.48
2018-09-03T18:47:33.206Z,101839.11
2018-09-03T18:50:01.559Z,101843.99
2018-09-03T18:52:29.367Z,101842.27
2018-09-03T18:54:57.051Z,101843.70
2018-09-03T18:57:24.756Z,101837.66
2018-09-03T18:59:54.183Z,101839.52
2018-09-03T19:02:22.185Z,101845.27
2018-09-03T19:04:49.916Z,101845.77
2018-09-03T19:07:17.690Z,101851.17
2018-09-03T19:09:45.447Z,101845.52
2018-09-03T19:12:13.155Z,101840.66
2018-09-03T19:14:41.344Z,101847.84
2018-09-03T19:17:09.026Z,101849.22
2018-09-03T19:19:36.785Z,101844.84
2018-09-03T19:22:04.515Z,101854.63
2018-09-03T19:24:32.217Z,101863.04
2018-09-03T19:26:59.990Z,101852.96
2018-09-03T19:29:27.690Z,101850.30
2018-09-03T19:31:55.471Z,101857.87
2018-09-03T19:34:23.629Z,101867.66
2018-09-03T19:36:51.305Z,101863.28
2018-09-03T19:39:19.033Z,101870.44
2018-09-03T19:41:46.812Z,101870.50
2018-09-03T19:44:14.542Z,101867.49
2018-09-03T19:46:42.201Z,101865.34
2018-09-03T19:49:10.007Z,101864.49
2018-09-03T19:51:37.667Z,101871.17
2018-09-03T19:54:05.924Z,101868.57
2018-09-03T19:56:33.874Z,101863.77
2018-09-03T19:59:01.829Z,101858.06
2018-09-03T20:01:29.907Z,101860.77
2018-09-03T20:03:57.591Z,101857.27
2018-09-03T20:06:25.362Z,101852.89
2018-09-03T20:08:53.158Z,101863.95
2018-09-03T20:11:20.855Z,101857.81
2018-09-03T20:13:48.640Z,101860.55
2018-09-03T20:16:16.583Z,101863.65
2018-09-03T20:18:44.312Z,101858.39
2018-09-03T20:21:12.082Z,101858.00
2018-09-03T20:23:40.461Z,101859.38
2018-09-03T20:26:08.173Z,101858.58
2018-09-03T20:28:35.936Z,101856.82
2018-09-03T20:31:04.005Z,101856.02
2018-09-03T20:33:31.677Z,101859.60
2018-09-03T20:35:59.427Z,101860.05
2018-09-03T20:38:27.103Z,101863.63
2018-09-03T20:40:54.792Z,101860.58
2018-09-03T20:43:22.864Z,101862.84
2018-09-03T20:45:50.595Z,101862.84
2018-09-03T20:48:18.333Z,101866.91
2018-09-03T20:50:46.010Z,101863.42
2018-09-03T20:53:13.721Z,101868.33
2018-09-03T20:55:41.767Z,101868.77
2018-09-03T20:58:09.470Z,101869.70
2018-09-03T21:00:37.148Z,101864.84
2018-09-03T21:03:05.265Z,101867.58
2018-09-03T21:05:33.006Z,101870.23
2018-09-03T21:08:00.785Z,101869.40
2018-09-03T21:10:28.420Z,101880.92
2018-09-03T21:12:56.091Z,101882.25
2018-09-03T21:15:23.877Z,101881.42
2018-09-03T21:17:51.540Z,101884.60
2018-09-03T21:20:19.249Z,101881.07
2018-09-03T21:22:46.972Z,101876.66
2018-09-03T21:25:14.658Z,101884.16
2018-09-03T21:27:42.490Z,101882.89
2018-09-03T21:30:10.189Z,101885.54
2018-09-03T21:32:37.928Z,101879.88
2018-09-03T21:35:06.444Z,101876.36
2018-09-03T21:37:34.551Z,101880.38
2018-09-03T21:40:02.243Z,101885.28
2018-09-03T21:42:29.916Z,101884.87
2018-09-03T21:44:57.701Z,101888.85
2018-09-03T21:47:25.358Z,101887.58
2018-09-03T21:49:53.067Z,101888.02
2018-09-03T21:52:21.131Z,101884.97
2018-09-03T21:54:48.811Z,101882.37
2018-09-03T21:57:16.469Z,101880.20
2018-09-03T21:59:44.149Z,101886.82
2018-09-03T22:02:11.897Z,101882.49
2018-09-03T22:04:41.536Z,101878.52
2018-09-03T22:07:09.262Z,101878.56
2018-09-03T22:09:37.233Z,101870.66
2018-09-03T22:12:04.945Z,101870.44
2018-09-03T22:14:32.600Z,101868.98
2018-09-03T22:17:00.362Z,101878.25
2018-09-03T22:19:28.051Z,101883.16
2018-09-03T22:21:56.112Z,101877.42
2018-09-03T22:24:23.792Z,101886.30
2018-09-03T22:26:51.634Z,101885.50
2018-09-03T22:29:19.325Z,101879.41
2018-09-03T22:31:47.068Z,101889.96
2018-09-03T22:34:14.748Z,101896.62
2018-09-03T22:36:43.318Z,101893.58
2018-09-03T22:39:11.125Z,101894.95
2018-09-03T22:41:38.912Z,101886.60
2018-09-03T22:44:06.887Z,101897.72
2018-09-03T22:46:34.582Z,101892.42
2018-09-03T22:49:02.318Z,101888.94
2018-09-03T22:51:30.241Z,101895.11
2018-09-03T22:53:58.340Z,101896.93
2018-09-03T22:56:26.046Z,101890.78
2018-09-03T22:58:53.728Z,101886.81
2018-09-03T23:01:21.534Z,101882.41
2018-09-03T23:03:49.190Z,101875.91
2018-09-03T23:06:17.005Z,101878.95
2018-09-03T23:08:44.697Z,101878.55
2018-09-03T23:11:12.404Z,101879.48
2018-09-03T23:13:40.189Z,101876.39
2018-09-03T23:16:07.898Z,101876.44
2018-09-03T23:18:35.622Z,101872.94
2018-09-03T23:21:03.277Z,101872.06
2018-09-03T23:23:32.273Z,101875.19
2018-09-03T23:25:59.932Z,101870.34
2018-09-03T23:28:27.598Z,101865.09
2018-09-03T23:30:55.601Z,101862.91
2018-09-03T23:33:23.313Z,101840.74
2018-09-03T23:35:51.100Z,101862.52
2018-09-03T23:38:24.031Z,101855.50
2018-09-03T23:40:51.715Z,101860.80
2018-09-03T23:43:19.845Z,101857.75
2018-09-03T23:45:47.420Z,101860.00
2018-09-03T23:48:15.773Z,101854.70
2018-09-03T23:50:43.468Z,101852.54
2018-09-03T23:53:11.131Z,101849.05
2018-09-03T23:55:39.100Z,101850.41
